sensor_id;sensor_type;location;lat;lon;timestamp;P1;durP1;ratioP1;P2;durP2;ratioP2
65737;SDS011;52478;51.844;6.582;2022-11-09T00:00:33;6.00;;;1.80;;
65737;SDS011;52478;51.844;6.582;2022-11-09T00:02:59;5.20;;;2.10;;
65737;SDS011;52478;51.844;6.582;2022-11-09T00:05:26;7.28;;;2.08;;
65737;SDS011;52478;51.844;6.582;2022-11-09T00:07:52;6.47;;;2.30;;
65737;SDS011;52478;51.844;6.582;2022-11-09T00:10:19;5.78;;;2.08;;
65737;SDS011;52478;51.844;6.582;2022-11-09T00:12:45;5.20;;;2.15;;
65737;SDS011;52478;51.844;6.582;2022-11-09T00:15:13;5.32;;;1.75;;
65737;SDS011;52478;51.844;6.582;2022-11-09T00:17:39;5.20;;;2.20;;
65737;SDS011;52478;51.844;6.582;2022-11-09T00:20:06;6.40;;;2.00;;
65737;SDS011;52478;51.844;6.582;2022-11-09T00:22:33;6.10;;;2.17;;
65737;SDS011;52478;51.844;6.582;2022-11-09T00:25:00;5.90;;;2.40;;
65737;SDS011;52478;51.844;6.582;2022-11-09T00:27:26;7.32;;;1.98;;
65737;SDS011;52478;51.844;6.582;2022-11-09T00:29:53;5.88;;;2.45;;
65737;SDS011;52478;51.844;6.582;2022-11-09T00:32:20;5.70;;;2.22;;
65737;SDS011;52478;51.844;6.582;2022-11-09T00:34:47;6.60;;;1.90;;
65737;SDS011;52478;51.844;6.582;2022-11-09T00:37:13;5.53;;;2.15;;
65737;SDS011;52478;51.844;6.582;2022-11-09T00:39:40;5.78;;;1.98;;
65737;SDS011;52478;51.844;6.582;2022-11-09T00:42:06;5.43;;;1.90;;
65737;SDS011;52478;51.844;6.582;2022-11-09T00:44:33;5.57;;;1.95;;
65737;SDS011;52478;51.844;6.582;2022-11-09T00:46:59;5.20;;;2.22;;
65737;SDS011;52478;51.844;6.582;2022-11-09T00:49:27;5.20;;;2.10;;
65737;SDS011;52478;51.844;6.582;2022-11-09T00:51:53;7.65;;;2.13;;
65737;SDS011;52478;51.844;6.582;2022-11-09T00:54:20;5.88;;;2.00;;
65737;SDS011;52478;51.844;6.582;2022-11-09T00:56:46;6.40;;;2.30;;
65737;SDS011;52478;51.844;6.582;2022-11-09T00:59:13;6.43;;;2.20;;
65737;SDS011;52478;51.844;6.582;2022-11-09T01:01:39;5.93;;;1.73;;
65737;SDS011;52478;51.844;6.582;2022-11-09T01:04:06;6.35;;;2.20;;
65737;SDS011;52478;51.844;6.582;2022-11-09T01:06:33;4.70;;;1.50;;
65737;SDS011;52478;51.844;6.582;2022-11-09T01:09:00;5.65;;;1.90;;
65737;SDS011;52478;51.844;6.582;2022-11-09T01:11:26;5.75;;;1.90;;
65737;SDS011;52478;51.844;6.582;2022-11-09T01:13:53;5.03;;;1.67;;
65737;SDS011;52478;51.844;6.582;2022-11-09T01:16:21;5.50;;;2.10;;
65737;SDS011;52478;51.844;6.582;2022-11-09T01:18:51;5.65;;;2.17;;
65737;SDS011;52478;51.844;6.582;2022-11-09T01:21:18;6.35;;;2.08;;
65737;SDS011;52478;51.844;6.582;2022-11-09T01:23:46;5.10;;;1.85;;
65737;SDS011;52478;51.844;6.582;2022-11-09T01:26:13;4.95;;;1.80;;
65737;SDS011;52478;51.844;6.582;2022-11-09T01:28:40;5.95;;;2.03;;
65737;SDS011;52478;51.844;6.582;2022-11-09T01:31:09;5.55;;;1.83;;
65737;SDS011;52478;51.844;6.582;2022-11-09T01:33:37;5.68;;;2.03;;
65737;SDS011;52478;51.844;6.582;2022-11-09T01:36:04;5.45;;;2.30;;
65737;SDS011;52478;51.844;6.582;2022-11-09T01:38:32;5.80;;;2.22;;
65737;SDS011;52478;51.844;6.582;2022-11-09T01:41:00;5.80;;;1.83;;
65737;SDS011;52478;51.844;6.582;2022-11-09T01:43:27;6.30;;;2.22;;
65737;SDS011;52478;51.844;6.582;2022-11-09T01:45:54;5.75;;;2.00;;
65737;SDS011;52478;51.844;6.582;2022-11-09T01:48:25;5.20;;;2.00;;
65737;SDS011;52478;51.844;6.582;2022-11-09T01:50:58;5.53;;;1.88;;
65737;SDS011;52478;51.844;6.582;2022-11-09T01:53:28;5.50;;;1.80;;
65737;SDS011;52478;51.844;6.582;2022-11-09T01:55:58;5.00;;;2.03;;
65737;SDS011;52478;51.844;6.582;2022-11-09T01:58:31;5.20;;;2.00;;
65737;SDS011;52478;51.844;6.582;2022-11-09T02:01:01;5.40;;;1.77;;
65737;SDS011;52478;51.844;6.582;2022-11-09T02:03:29;5.60;;;1.90;;
65737;SDS011;52478;51.844;6.582;2022-11-09T02:06:00;5.38;;;2.10;;
65737;SDS011;52478;51.844;6.582;2022-11-09T02:08:30;5.15;;;1.83;;
65737;SDS011;52478;51.844;6.582;2022-11-09T02:10:59;4.95;;;2.00;;
65737;SDS011;52478;51.844;6.582;2022-11-09T02:13:32;5.13;;;1.65;;
65737;SDS011;52478;51.844;6.582;2022-11-09T02:15:59;5.40;;;1.80;;
65737;SDS011;52478;51.844;6.582;2022-11-09T02:18:26;6.05;;;2.17;;
65737;SDS011;52478;51.844;6.582;2022-11-09T02:20:54;5.15;;;2.00;;
65737;SDS011;52478;51.844;6.582;2022-11-09T02:23:23;5.57;;;1.83;;
65737;SDS011;52478;51.844;6.582;2022-11-09T02:25:52;5.55;;;1.75;;
65737;SDS011;52478;51.844;6.582;2022-11-09T02:28:22;5.72;;;1.67;;
65737;SDS011;52478;51.844;6.582;2022-11-09T02:30:50;5.22;;;2.20;;
65737;SDS011;52478;51.844;6.582;2022-11-09T02:33:19;5.78;;;2.17;;
65737;SDS011;52478;51.844;6.582;2022-11-09T02:35:45;4.80;;;1.70;;
65737;SDS011;52478;51.844;6.582;2022-11-09T02:38:13;4.82;;;1.63;;
65737;SDS011;52478;51.844;6.582;2022-11-09T02:40:41;5.38;;;1.80;;
65737;SDS011;52478;51.844;6.582;2022-11-09T02:43:10;5.32;;;2.00;;
65737;SDS011;52478;51.844;6.582;2022-11-09T02:50:30;5.63;;;2.25;;
65737;SDS011;52478;51.844;6.582;2022-11-09T02:52:57;5.22;;;1.90;;
65737;SDS011;52478;51.844;6.582;2022-11-09T02:55:25;6.10;;;2.10;;
65737;SDS011;52478;51.844;6.582;2022-11-09T02:57:51;5.32;;;1.77;;
65737;SDS011;52478;51.844;6.582;2022-11-09T03:00:18;5.93;;;2.13;;
65737;SDS011;52478;51.844;6.582;2022-11-09T03:02:44;6.00;;;2.33;;
65737;SDS011;52478;51.844;6.582;2022-11-09T03:05:11;4.97;;;1.85;;
65737;SDS011;52478;51.844;6.582;2022-11-09T03:07:37;4.38;;;1.70;;
65737;SDS011;52478;51.844;6.582;2022-11-09T03:10:04;5.25;;;1.95;;
65737;SDS011;52478;51.844;6.582;2022-11-09T03:12:32;5.50;;;1.60;;
65737;SDS011;52478;51.844;6.582;2022-11-09T03:14:59;6.05;;;2.08;;
65737;SDS011;52478;51.844;6.582;2022-11-09T03:17:27;6.43;;;2.30;;
65737;SDS011;52478;51.844;6.582;2022-11-09T03:19:54;5.00;;;1.60;;
65737;SDS011;52478;51.844;6.582;2022-11-09T03:22:20;5.97;;;2.15;;
65737;SDS011;52478;51.844;6.582;2022-11-09T03:24:47;5.72;;;2.00;;
65737;SDS011;52478;51.844;6.582;2022-11-09T03:27:13;4.25;;;1.70;;
65737;SDS011;52478;51.844;6.582;2022-11-09T03:29:42;5.03;;;2.00;;
65737;SDS011;52478;51.844;6.582;2022-11-09T03:32:08;5.43;;;2.08;;
65737;SDS011;52478;51.844;6.582;2022-11-09T03:34:35;6.40;;;1.92;;
65737;SDS011;52478;51.844;6.582;2022-11-09T03:37:01;6.25;;;1.60;;
65737;SDS011;52478;51.844;6.582;2022-11-09T03:39:28;6.72;;;1.75;;
65737;SDS011;52478;51.844;6.582;2022-11-09T03:41:54;5.60;;;2.00;;
65737;SDS011;52478;51.844;6.582;2022-11-09T03:44:20;5.28;;;1.67;;
65737;SDS011;52478;51.844;6.582;2022-11-09T03:46:48;5.72;;;1.83;;
65737;SDS011;52478;51.844;6.582;2022-11-09T03:49:15;4.68;;;1.80;;
65737;SDS011;52478;51.844;6.582;2022-11-09T03:51:41;5.05;;;1.90;;
65737;SDS011;52478;51.844;6.582;2022-11-09T03:54:07;5.50;;;1.70;;
65737;SDS011;52478;51.844;6.582;2022-11-09T03:56:34;6.05;;;1.58;;
65737;SDS011;52478;51.844;6.582;2022-11-09T03:59:01;5.25;;;1.60;;
65737;SDS011;52478;51.844;6.582;2022-11-09T04:01:27;5.05;;;1.63;;
65737;SDS011;52478;51.844;6.582;2022-11-09T04:03:55;5.90;;;1.70;;
65737;SDS011;52478;51.844;6.582;2022-11-09T04:06:21;4.70;;;2.00;;
65737;SDS011;52478;51.844;6.582;2022-11-09T04:08:48;5.97;;;1.80;;
65737;SDS011;52478;51.844;6.582;2022-11-09T04:11:14;4.80;;;1.77;;
65737;SDS011;52478;51.844;6.582;2022-11-09T04:13:41;4.90;;;2.03;;
65737;SDS011;52478;51.844;6.582;2022-11-09T04:16:08;4.80;;;1.42;;
65737;SDS011;52478;51.844;6.582;2022-11-09T04:18:34;4.95;;;1.50;;
65737;SDS011;52478;51.844;6.582;2022-11-09T04:21:02;5.68;;;1.90;;
65737;SDS011;52478;51.844;6.582;2022-11-09T04:23:28;5.18;;;1.70;;
65737;SDS011;52478;51.844;6.582;2022-11-09T04:25:56;6.13;;;1.92;;
65737;SDS011;52478;51.844;6.582;2022-11-09T04:28:23;4.95;;;1.40;;
65737;SDS011;52478;51.844;6.582;2022-11-09T04:30:50;5.55;;;1.70;;
65737;SDS011;52478;51.844;6.582;2022-11-09T04:33:16;6.85;;;2.13;;
65737;SDS011;52478;51.844;6.582;2022-11-09T04:35:43;5.75;;;1.70;;
65737;SDS011;52478;51.844;6.582;2022-11-09T04:38:11;4.90;;;1.58;;
65737;SDS011;52478;51.844;6.582;2022-11-09T04:40:38;5.60;;;1.90;;
65737;SDS011;52478;51.844;6.582;2022-11-09T04:43:06;5.85;;;1.60;;
65737;SDS011;52478;51.844;6.582;2022-11-09T04:45:34;5.60;;;1.50;;
65737;SDS011;52478;51.844;6.582;2022-11-09T04:48:01;5.35;;;1.80;;
65737;SDS011;52478;51.844;6.582;2022-11-09T04:50:29;8.40;;;2.00;;
65737;SDS011;52478;51.844;6.582;2022-11-09T04:53:02;6.68;;;1.50;;
65737;SDS011;52478;51.844;6.582;2022-11-09T04:55:31;6.10;;;1.73;;
65737;SDS011;52478;51.844;6.582;2022-11-09T04:57:57;7.32;;;1.90;;
65737;SDS011;52478;51.844;6.582;2022-11-09T05:00:24;5.68;;;1.73;;
65737;SDS011;52478;51.844;6.582;2022-11-09T05:02:51;7.68;;;2.17;;
65737;SDS011;52478;51.844;6.582;2022-11-09T05:05:17;4.55;;;1.60;;
65737;SDS011;52478;51.844;6.582;2022-11-09T05:07:44;5.13;;;1.60;;
65737;SDS011;52478;51.844;6.582;2022-11-09T05:10:10;5.32;;;1.80;;
65737;SDS011;52478;51.844;6.582;2022-11-09T05:12:38;4.65;;;1.73;;
65737;SDS011;52478;51.844;6.582;2022-11-09T05:15:05;6.07;;;1.60;;
65737;SDS011;52478;51.844;6.582;2022-11-09T05:17:32;5.25;;;1.85;;
65737;SDS011;52478;51.844;6.582;2022-11-09T05:19:58;5.57;;;1.55;;
65737;SDS011;52478;51.844;6.582;2022-11-09T05:22:25;5.22;;;1.70;;
65737;SDS011;52478;51.844;6.582;2022-11-09T05:25:09;4.93;;;1.55;;
65737;SDS011;52478;51.844;6.582;2022-11-09T05:27:38;6.22;;;1.80;;
65737;SDS011;52478;51.844;6.582;2022-11-09T05:30:05;6.20;;;1.80;;
65737;SDS011;52478;51.844;6.582;2022-11-09T05:32:32;4.78;;;1.63;;
65737;SDS011;52478;51.844;6.582;2022-11-09T05:35:01;5.25;;;1.70;;
65737;SDS011;52478;51.844;6.582;2022-11-09T05:37:27;7.07;;;2.08;;
65737;SDS011;52478;51.844;6.582;2022-11-09T05:39:54;5.38;;;1.98;;
65737;SDS011;52478;51.844;6.582;2022-11-09T05:42:22;5.20;;;1.52;;
65737;SDS011;52478;51.844;6.582;2022-11-09T05:44:50;5.10;;;1.40;;
65737;SDS011;52478;51.844;6.582;2022-11-09T05:47:17;5.53;;;1.48;;
65737;SDS011;52478;51.844;6.582;2022-11-09T05:52:10;6.70;;;1.73;;
65737;SDS011;52478;51.844;6.582;2022-11-09T05:54:37;5.82;;;1.45;;
65737;SDS011;52478;51.844;6.582;2022-11-09T05:57:03;6.43;;;1.73;;
65737;SDS011;52478;51.844;6.582;2022-11-09T05:59:30;4.82;;;1.77;;
65737;SDS011;52478;51.844;6.582;2022-11-09T06:01:57;5.78;;;1.50;;
65737;SDS011;52478;51.844;6.582;2022-11-09T06:04:24;6.55;;;1.40;;
65737;SDS011;52478;51.844;6.582;2022-11-09T06:06:50;6.40;;;1.70;;
65737;SDS011;52478;51.844;6.582;2022-11-09T06:09:17;5.75;;;1.83;;
65737;SDS011;52478;51.844;6.582;2022-11-09T06:11:43;6.07;;;1.52;;
65737;SDS011;52478;51.844;6.582;2022-11-09T06:14:10;6.18;;;1.52;;
65737;SDS011;52478;51.844;6.582;2022-11-09T06:16:36;6.53;;;1.50;;
65737;SDS011;52478;51.844;6.582;2022-11-09T06:19:04;6.20;;;1.70;;
65737;SDS011;52478;51.844;6.582;2022-11-09T06:21:30;7.07;;;2.25;;
65737;SDS011;52478;51.844;6.582;2022-11-09T06:23:57;5.95;;;1.50;;
65737;SDS011;52478;51.844;6.582;2022-11-09T06:26:23;6.00;;;1.70;;
65737;SDS011;52478;51.844;6.582;2022-11-09T06:28:50;6.63;;;1.60;;
65737;SDS011;52478;51.844;6.582;2022-11-09T06:31:16;5.25;;;1.63;;
65737;SDS011;52478;51.844;6.582;2022-11-09T06:33:44;5.75;;;1.83;;
65737;SDS011;52478;51.844;6.582;2022-11-09T06:36:12;6.50;;;1.70;;
65737;SDS011;52478;51.844;6.582;2022-11-09T06:38:39;5.28;;;1.92;;
65737;SDS011;52478;51.844;6.582;2022-11-09T06:41:07;5.82;;;1.52;;
65737;SDS011;52478;51.844;6.582;2022-11-09T06:43:34;11.18;;;2.10;;
65737;SDS011;52478;51.844;6.582;2022-11-09T06:46:01;7.53;;;1.83;;
65737;SDS011;52478;51.844;6.582;2022-11-09T06:48:29;7.05;;;1.88;;
65737;SDS011;52478;51.844;6.582;2022-11-09T06:50:58;9.32;;;2.00;;
65737;SDS011;52478;51.844;6.582;2022-11-09T06:53:26;11.45;;;2.15;;
65737;SDS011;52478;51.844;6.582;2022-11-09T06:55:56;6.47;;;1.60;;
65737;SDS011;52478;51.844;6.582;2022-11-09T06:58:23;6.75;;;1.98;;
65737;SDS011;52478;51.844;6.582;2022-11-09T07:00:49;6.75;;;1.83;;
65737;SDS011;52478;51.844;6.582;2022-11-09T07:03:18;10.40;;;1.98;;
65737;SDS011;52478;51.844;6.582;2022-11-09T07:05:45;6.10;;;1.67;;
65737;SDS011;52478;51.844;6.582;2022-11-09T07:08:13;8.02;;;1.70;;
65737;SDS011;52478;51.844;6.582;2022-11-09T07:10:41;7.15;;;1.60;;
65737;SDS011;52478;51.844;6.582;2022-11-09T07:13:08;8.18;;;2.13;;
65737;SDS011;52478;51.844;6.582;2022-11-09T07:15:35;6.15;;;1.80;;
65737;SDS011;52478;51.844;6.582;2022-11-09T07:18:03;6.97;;;1.88;;
65737;SDS011;52478;51.844;6.582;2022-11-09T07:20:32;7.32;;;1.63;;
65737;SDS011;52478;51.844;6.582;2022-11-09T07:22:59;5.03;;;1.38;;
65737;SDS011;52478;51.844;6.582;2022-11-09T07:25:26;7.85;;;1.65;;
65737;SDS011;52478;51.844;6.582;2022-11-09T07:27:54;8.30;;;1.90;;
65737;SDS011;52478;51.844;6.582;2022-11-09T07:30:26;8.98;;;1.85;;
65737;SDS011;52478;51.844;6.582;2022-11-09T07:32:53;7.35;;;2.00;;
65737;SDS011;52478;51.844;6.582;2022-11-09T07:35:22;7.07;;;1.95;;
65737;SDS011;52478;51.844;6.582;2022-11-09T07:37:48;9.10;;;1.90;;
65737;SDS011;52478;51.844;6.582;2022-11-09T07:40:14;7.15;;;1.70;;
65737;SDS011;52478;51.844;6.582;2022-11-09T07:42:41;9.63;;;2.63;;
65737;SDS011;52478;51.844;6.582;2022-11-09T07:45:10;19.95;;;3.33;;
65737;SDS011;52478;51.844;6.582;2022-11-09T07:47:36;15.05;;;2.92;;
65737;SDS011;52478;51.844;6.582;2022-11-09T07:50:03;10.27;;;2.80;;
65737;SDS011;52478;51.844;6.582;2022-11-09T07:52:30;15.50;;;3.03;;
65737;SDS011;52478;51.844;6.582;2022-11-09T07:54:56;9.30;;;2.17;;
65737;SDS011;52478;51.844;6.582;2022-11-09T07:57:23;10.90;;;2.72;;
65737;SDS011;52478;51.844;6.582;2022-11-09T07:59:49;11.80;;;2.70;;
65737;SDS011;52478;51.844;6.582;2022-11-09T08:02:18;8.93;;;2.25;;
65737;SDS011;52478;51.844;6.582;2022-11-09T08:04:45;11.38;;;2.45;;
65737;SDS011;52478;51.844;6.582;2022-11-09T08:07:11;10.32;;;1.83;;
65737;SDS011;52478;51.844;6.582;2022-11-09T08:09:38;7.10;;;2.17;;
65737;SDS011;52478;51.844;6.582;2022-11-09T08:12:04;10.20;;;1.90;;
65737;SDS011;52478;51.844;6.582;2022-11-09T08:14:31;8.48;;;1.70;;
65737;SDS011;52478;51.844;6.582;2022-11-09T08:16:58;7.50;;;2.03;;
65737;SDS011;52478;51.844;6.582;2022-11-09T08:19:26;8.13;;;2.08;;
65737;SDS011;52478;51.844;6.582;2022-11-09T08:21:52;7.03;;;2.13;;
65737;SDS011;52478;51.844;6.582;2022-11-09T08:24:21;5.97;;;1.80;;
65737;SDS011;52478;51.844;6.582;2022-11-09T08:26:47;9.77;;;1.90;;
65737;SDS011;52478;51.844;6.582;2022-11-09T08:29:14;7.35;;;1.65;;
65737;SDS011;52478;51.844;6.582;2022-11-09T08:31:40;7.78;;;1.92;;
65737;SDS011;52478;51.844;6.582;2022-11-09T08:34:09;5.50;;;1.80;;
65737;SDS011;52478;51.844;6.582;2022-11-09T08:36:39;7.22;;;1.90;;
65737;SDS011;52478;51.844;6.582;2022-11-09T08:39:05;8.30;;;2.00;;
65737;SDS011;52478;51.844;6.582;2022-11-09T08:41:32;7.85;;;1.88;;
65737;SDS011;52478;51.844;6.582;2022-11-09T08:43:58;8.30;;;1.80;;
65737;SDS011;52478;51.844;6.582;2022-11-09T08:46:25;6.78;;;1.73;;
65737;SDS011;52478;51.844;6.582;2022-11-09T08:48:51;6.65;;;1.70;;
65737;SDS011;52478;51.844;6.582;2022-11-09T08:51:18;6.60;;;1.63;;
65737;SDS011;52478;51.844;6.582;2022-11-09T08:53:46;5.43;;;1.77;;
65737;SDS011;52478;51.844;6.582;2022-11-09T08:56:12;8.35;;;1.75;;
65737;SDS011;52478;51.844;6.582;2022-11-09T08:58:42;6.32;;;1.83;;
65737;SDS011;52478;51.844;6.582;2022-11-09T09:01:10;8.50;;;2.00;;
65737;SDS011;52478;51.844;6.582;2022-11-09T09:03:37;7.10;;;2.00;;
65737;SDS011;52478;51.844;6.582;2022-11-09T09:06:03;6.72;;;1.73;;
65737;SDS011;52478;51.844;6.582;2022-11-09T09:08:31;6.43;;;1.55;;
65737;SDS011;52478;51.844;6.582;2022-11-09T09:11:01;7.63;;;2.00;;
65737;SDS011;52478;51.844;6.582;2022-11-09T09:13:28;6.18;;;1.58;;
65737;SDS011;52478;51.844;6.582;2022-11-09T09:15:55;7.28;;;1.58;;
65737;SDS011;52478;51.844;6.582;2022-11-09T09:18:21;7.80;;;1.80;;
65737;SDS011;52478;51.844;6.582;2022-11-09T09:20:48;7.35;;;1.90;;
65737;SDS011;52478;51.844;6.582;2022-11-09T09:23:15;8.45;;;2.03;;
65737;SDS011;52478;51.844;6.582;2022-11-09T09:25:41;8.18;;;1.77;;
65737;SDS011;52478;51.844;6.582;2022-11-09T09:28:09;7.80;;;2.00;;
65737;SDS011;52478;51.844;6.582;2022-11-09T09:30:36;7.82;;;1.63;;
65737;SDS011;52478;51.844;6.582;2022-11-09T09:33:02;7.32;;;1.75;;
65737;SDS011;52478;51.844;6.582;2022-11-09T09:35:29;6.25;;;1.83;;
65737;SDS011;52478;51.844;6.582;2022-11-09T09:37:55;5.93;;;1.77;;
65737;SDS011;52478;51.844;6.582;2022-11-09T09:40:23;6.82;;;1.75;;
65737;SDS011;52478;51.844;6.582;2022-11-09T09:42:52;6.85;;;1.63;;
65737;SDS011;52478;51.844;6.582;2022-11-09T09:45:21;7.75;;;2.00;;
65737;SDS011;52478;51.844;6.582;2022-11-09T09:47:52;7.35;;;1.55;;
65737;SDS011;52478;51.844;6.582;2022-11-09T09:50:23;6.72;;;1.65;;
65737;SDS011;52478;51.844;6.582;2022-11-09T09:52:54;5.80;;;1.65;;
65737;SDS011;52478;51.844;6.582;2022-11-09T09:55:24;7.80;;;1.73;;
65737;SDS011;52478;51.844;6.582;2022-11-09T09:57:56;7.35;;;1.90;;
65737;SDS011;52478;51.844;6.582;2022-11-09T10:00:28;8.27;;;1.73;;
65737;SDS011;52478;51.844;6.582;2022-11-09T10:02:57;7.40;;;1.65;;
65737;SDS011;52478;51.844;6.582;2022-11-09T10:05:25;6.90;;;1.95;;
65737;SDS011;52478;51.844;6.582;2022-11-09T10:07:59;7.18;;;1.63;;
65737;SDS011;52478;51.844;6.582;2022-11-09T10:10:38;9.30;;;2.00;;
65737;SDS011;52478;51.844;6.582;2022-11-09T10:13:15;8.30;;;1.90;;
65737;SDS011;52478;51.844;6.582;2022-11-09T10:15:51;9.02;;;2.22;;
65737;SDS011;52478;51.844;6.582;2022-11-09T10:18:27;6.85;;;2.03;;
65737;SDS011;52478;51.844;6.582;2022-11-09T10:21:03;7.15;;;1.63;;
65737;SDS011;52478;51.844;6.582;2022-11-09T10:23:42;8.52;;;2.00;;
65737;SDS011;52478;51.844;6.582;2022-11-09T10:26:16;8.45;;;1.65;;
65737;SDS011;52478;51.844;6.582;2022-11-09T10:28:48;9.65;;;1.85;;
65737;SDS011;52478;51.844;6.582;2022-11-09T10:31:19;6.35;;;1.75;;
65737;SDS011;52478;51.844;6.582;2022-11-09T10:33:48;8.07;;;1.42;;
65737;SDS011;52478;51.844;6.582;2022-11-09T10:36:20;7.03;;;1.65;;
65737;SDS011;52478;51.844;6.582;2022-11-09T10:38:50;7.40;;;1.42;;
65737;SDS011;52478;51.844;6.582;2022-11-09T10:41:23;5.53;;;1.60;;
65737;SDS011;52478;51.844;6.582;2022-11-09T10:43:53;7.22;;;2.00;;
65737;SDS011;52478;51.844;6.582;2022-11-09T10:46:21;6.55;;;1.33;;
65737;SDS011;52478;51.844;6.582;2022-11-09T10:48:48;7.20;;;1.65;;
65737;SDS011;52478;51.844;6.582;2022-11-09T10:54:12;7.82;;;1.50;;
65737;SDS011;52478;51.844;6.582;2022-11-09T10:56:42;7.25;;;2.10;;
65737;SDS011;52478;51.844;6.582;2022-11-09T10:59:27;8.00;;;1.85;;
65737;SDS011;52478;51.844;6.582;2022-11-09T11:02:02;8.75;;;1.70;;
65737;SDS011;52478;51.844;6.582;2022-11-09T11:05:23;9.18;;;1.45;;
65737;SDS011;52478;51.844;6.582;2022-11-09T11:07:54;8.32;;;1.75;;
65737;SDS011;52478;51.844;6.582;2022-11-09T11:10:21;7.97;;;1.70;;
65737;SDS011;52478;51.844;6.582;2022-11-09T11:15:47;9.35;;;1.75;;
65737;SDS011;52478;51.844;6.582;2022-11-09T11:18:19;6.38;;;1.45;;
65737;SDS011;52478;51.844;6.582;2022-11-09T11:20:48;9.32;;;1.80;;
65737;SDS011;52478;51.844;6.582;2022-11-09T11:23:30;7.60;;;2.28;;
65737;SDS011;52478;51.844;6.582;2022-11-09T11:26:03;7.10;;;1.80;;
65737;SDS011;52478;51.844;6.582;2022-11-09T11:28:41;7.90;;;1.77;;
65737;SDS011;52478;51.844;6.582;2022-11-09T11:31:10;8.43;;;2.15;;
65737;SDS011;52478;51.844;6.582;2022-11-09T11:33:41;8.05;;;1.67;;
65737;SDS011;52478;51.844;6.582;2022-11-09T11:36:10;8.02;;;1.60;;
65737;SDS011;52478;51.844;6.582;2022-11-09T11:38:46;6.97;;;1.90;;
65737;SDS011;52478;51.844;6.582;2022-11-09T11:41:32;8.20;;;1.50;;
65737;SDS011;52478;51.844;6.582;2022-11-09T11:44:11;8.32;;;1.85;;
65737;SDS011;52478;51.844;6.582;2022-11-09T11:46:52;6.60;;;1.45;;
65737;SDS011;52478;51.844;6.582;2022-11-09T11:49:32;8.23;;;1.55;;
65737;SDS011;52478;51.844;6.582;2022-11-09T11:52:11;8.73;;;1.60;;
65737;SDS011;52478;51.844;6.582;2022-11-09T11:54:46;8.45;;;1.88;;
65737;SDS011;52478;51.844;6.582;2022-11-09T11:57:26;7.15;;;1.65;;
65737;SDS011;52478;51.844;6.582;2022-11-09T12:00:02;10.23;;;1.90;;
65737;SDS011;52478;51.844;6.582;2022-11-09T12:05:51;7.45;;;1.98;;
65737;SDS011;52478;51.844;6.582;2022-11-09T12:08:28;8.75;;;2.10;;
65737;SDS011;52478;51.844;6.582;2022-11-09T12:11:04;7.22;;;1.65;;
65737;SDS011;52478;51.844;6.582;2022-11-09T12:13:41;8.43;;;1.98;;
65737;SDS011;52478;51.844;6.582;2022-11-09T12:16:19;7.38;;;1.63;;
65737;SDS011;52478;51.844;6.582;2022-11-09T12:18:52;8.23;;;1.80;;
65737;SDS011;52478;51.844;6.582;2022-11-09T12:21:26;8.88;;;1.85;;
65737;SDS011;52478;51.844;6.582;2022-11-09T12:24:03;6.15;;;1.60;;
65737;SDS011;52478;51.844;6.582;2022-11-09T12:26:46;8.55;;;1.60;;
65737;SDS011;52478;51.844;6.582;2022-11-09T12:29:24;4.68;;;1.23;;
65737;SDS011;52478;51.844;6.582;2022-11-09T12:32:00;9.93;;;2.05;;
65737;SDS011;52478;51.844;6.582;2022-11-09T12:34:35;9.75;;;1.90;;
65737;SDS011;52478;51.844;6.582;2022-11-09T12:37:11;7.80;;;1.60;;
65737;SDS011;52478;51.844;6.582;2022-11-09T12:39:39;10.75;;;2.10;;
65737;SDS011;52478;51.844;6.582;2022-11-09T12:42:12;8.70;;;2.22;;
65737;SDS011;52478;51.844;6.582;2022-11-09T12:44:42;10.10;;;1.92;;
65737;SDS011;52478;51.844;6.582;2022-11-09T12:47:14;9.70;;;1.80;;
65737;SDS011;52478;51.844;6.582;2022-11-09T12:49:45;6.90;;;1.83;;
65737;SDS011;52478;51.844;6.582;2022-11-09T12:52:14;6.95;;;1.80;;
65737;SDS011;52478;51.844;6.582;2022-11-09T12:54:44;7.28;;;1.40;;
65737;SDS011;52478;51.844;6.582;2022-11-09T12:57:12;6.13;;;1.67;;
65737;SDS011;52478;51.844;6.582;2022-11-09T12:59:45;11.30;;;1.90;;
65737;SDS011;52478;51.844;6.582;2022-11-09T13:02:19;10.25;;;1.60;;
65737;SDS011;52478;51.844;6.582;2022-11-09T13:04:55;7.20;;;1.40;;
65737;SDS011;52478;51.844;6.582;2022-11-09T13:10:21;7.57;;;2.08;;
65737;SDS011;52478;51.844;6.582;2022-11-09T13:13:00;6.00;;;1.50;;
65737;SDS011;52478;51.844;6.582;2022-11-09T13:23:59;8.63;;;1.83;;
65737;SDS011;52478;51.844;6.582;2022-11-09T13:27:34;6.95;;;1.70;;
65737;SDS011;52478;51.844;6.582;2022-11-09T13:30:34;7.05;;;2.00;;
65737;SDS011;52478;51.844;6.582;2022-11-09T13:33:17;7.72;;;1.95;;
65737;SDS011;52478;51.844;6.582;2022-11-09T13:42:00;6.18;;;1.40;;
65737;SDS011;52478;51.844;6.582;2022-11-09T13:44:29;6.15;;;1.33;;
65737;SDS011;52478;51.844;6.582;2022-11-09T13:46:56;6.28;;;1.60;;
65737;SDS011;52478;51.844;6.582;2022-11-09T13:49:33;6.78;;;1.40;;
65737;SDS011;52478;51.844;6.582;2022-11-09T13:52:04;6.05;;;1.40;;
65737;SDS011;52478;51.844;6.582;2022-11-09T13:54:51;5.72;;;1.42;;
65737;SDS011;52478;51.844;6.582;2022-11-09T13:57:20;6.00;;;1.50;;
65737;SDS011;52478;51.844;6.582;2022-11-09T13:59:48;7.70;;;1.38;;
65737;SDS011;52478;51.844;6.582;2022-11-09T14:02:17;8.02;;;1.58;;
65737;SDS011;52478;51.844;6.582;2022-11-09T14:04:45;8.82;;;1.63;;
65737;SDS011;52478;51.844;6.582;2022-11-09T14:07:14;6.18;;;1.65;;
65737;SDS011;52478;51.844;6.582;2022-11-09T14:09:47;5.18;;;1.13;;
65737;SDS011;52478;51.844;6.582;2022-11-09T14:12:23;5.38;;;1.25;;
65737;SDS011;52478;51.844;6.582;2022-11-09T14:15:08;9.80;;;1.70;;
65737;SDS011;52478;51.844;6.582;2022-11-09T14:17:44;5.07;;;1.58;;
65737;SDS011;52478;51.844;6.582;2022-11-09T14:20:20;5.55;;;1.42;;
65737;SDS011;52478;51.844;6.582;2022-11-09T14:22:53;6.03;;;1.38;;
65737;SDS011;52478;51.844;6.582;2022-11-09T14:25:21;6.45;;;1.40;;
65737;SDS011;52478;51.844;6.582;2022-11-09T14:27:51;7.00;;;1.58;;
65737;SDS011;52478;51.844;6.582;2022-11-09T14:30:22;5.57;;;1.55;;
65737;SDS011;52478;51.844;6.582;2022-11-09T14:32:51;9.30;;;1.52;;
65737;SDS011;52478;51.844;6.582;2022-11-09T14:35:20;6.80;;;1.40;;
65737;SDS011;52478;51.844;6.582;2022-11-09T14:37:48;8.25;;;1.73;;
65737;SDS011;52478;51.844;6.582;2022-11-09T14:40:16;6.97;;;1.60;;
65737;SDS011;52478;51.844;6.582;2022-11-09T14:42:45;8.30;;;1.88;;
65737;SDS011;52478;51.844;6.582;2022-11-09T14:45:15;5.85;;;1.73;;
65737;SDS011;52478;51.844;6.582;2022-11-09T14:47:43;7.80;;;1.50;;
65737;SDS011;52478;51.844;6.582;2022-11-09T14:50:13;8.35;;;1.50;;
65737;SDS011;52478;51.844;6.582;2022-11-09T14:52:41;6.80;;;1.45;;
65737;SDS011;52478;51.844;6.582;2022-11-09T14:55:10;5.50;;;1.35;;
65737;SDS011;52478;51.844;6.582;2022-11-09T14:57:38;5.93;;;1.45;;
65737;SDS011;52478;51.844;6.582;2022-11-09T15:00:19;6.25;;;1.88;;
65737;SDS011;52478;51.844;6.582;2022-11-09T15:02:57;8.85;;;3.30;;
65737;SDS011;52478;51.844;6.582;2022-11-09T15:05:33;9.07;;;3.75;;
65737;SDS011;52478;51.844;6.582;2022-11-09T15:08:03;14.32;;;5.07;;
65737;SDS011;52478;51.844;6.582;2022-11-09T15:10:31;11.93;;;5.43;;
65737;SDS011;52478;51.844;6.582;2022-11-09T15:15:27;13.30;;;4.47;;
65737;SDS011;52478;51.844;6.582;2022-11-09T15:17:55;11.68;;;4.90;;
65737;SDS011;52478;51.844;6.582;2022-11-09T15:20:24;11.73;;;4.43;;
65737;SDS011;52478;51.844;6.582;2022-11-09T15:22:53;11.93;;;4.43;;
65737;SDS011;52478;51.844;6.582;2022-11-09T15:25:22;10.85;;;4.30;;
65737;SDS011;52478;51.844;6.582;2022-11-09T15:27:59;12.07;;;4.75;;
65737;SDS011;52478;51.844;6.582;2022-11-09T15:30:42;11.65;;;3.80;;
65737;SDS011;52478;51.844;6.582;2022-11-09T15:33:18;12.85;;;4.68;;
65737;SDS011;52478;51.844;6.582;2022-11-09T15:35:49;10.80;;;3.70;;